createdAt,value
2023-03-20T00:01:33.516Z,5.91
2023-03-20T00:04:00.817Z,5.94
2023-03-20T00:06:31.461Z,6.05
2023-03-20T00:08:58.727Z,6.09
2023-03-20T00:11:41.254Z,6.22
2023-03-20T00:14:10.429Z,6.28
2023-03-20T00:16:39.503Z,6.29
2023-03-20T00:19:08.694Z,6.37
2023-03-20T00:21:35.596Z,6.49
2023-03-20T00:24:02.932Z,6.55
2023-03-20T00:26:36.892Z,6.59
2023-03-20T00:29:05.265Z,6.61
2023-03-20T00:31:37.368Z,6.62
2023-03-20T00:34:12.729Z,6.63
2023-03-20T00:36:40.333Z,6.61
2023-03-20T00:39:07.703Z,6.57
2023-03-20T00:41:55.204Z,6.56
2023-03-20T00:44:25.629Z,6.60
2023-03-20T00:47:03.234Z,6.67
2023-03-20T00:49:32.585Z,6.70
2023-03-20T00:52:01.369Z,6.72
2023-03-20T00:54:28.597Z,6.76
2023-03-20T00:56:55.460Z,6.77
2023-03-20T00:59:25.076Z,6.80
2023-03-20T01:01:52.199Z,6.79
2023-03-20T01:04:20.780Z,6.72
2023-03-20T01:06:48.016Z,6.69
2023-03-20T01:09:17.930Z,6.66
2023-03-20T01:11:45.335Z,6.58
2023-03-20T01:14:13.696Z,6.56
2023-03-20T01:16:40.979Z,6.54
2023-03-20T01:19:11.069Z,6.52
2023-03-20T01:21:38.009Z,6.46
2023-03-20T01:24:05.580Z,6.45
2023-03-20T01:26:38.468Z,6.41
2023-03-20T01:29:16.485Z,6.42
2023-03-20T01:31:43.562Z,6.38
2023-03-20T01:34:11.837Z,6.38
2023-03-20T01:36:39.318Z,6.36
2023-03-20T01:39:06.875Z,6.36
2023-03-20T01:41:33.724Z,6.34
2023-03-20T01:44:06.898Z,6.39
2023-03-20T01:46:36.971Z,6.43
2023-03-20T01:49:18.937Z,6.40
2023-03-20T01:51:47.307Z,6.49
2023-03-20T01:54:26.829Z,6.49
2023-03-20T01:57:08.405Z,6.51
2023-03-20T01:59:37.916Z,6.53
2023-03-20T02:02:06.716Z,6.54
2023-03-20T02:04:36.639Z,6.58
2023-03-20T02:07:08.690Z,6.60
2023-03-20T02:10:03.399Z,6.73
2023-03-20T02:12:44.180Z,6.85
2023-03-20T02:15:15.512Z,6.91
2023-03-20T02:18:03.626Z,6.94
2023-03-20T02:20:33.909Z,6.97
2023-03-20T02:23:07.055Z,6.97
2023-03-20T02:25:54.994Z,6.97
2023-03-20T02:28:42.637Z,6.88
2023-03-20T02:31:27.605Z,6.77
2023-03-20T02:33:57.276Z,6.62
2023-03-20T02:36:32.719Z,6.52
2023-03-20T02:39:06.497Z,6.36
2023-03-20T02:41:50.362Z,6.30
2023-03-20T02:44:36.445Z,6.24
2023-03-20T02:47:21.818Z,6.19
2023-03-20T02:49:56.191Z,6.18
2023-03-20T02:52:36.549Z,6.17
2023-03-20T02:55:07.216Z,6.13
2023-03-20T02:57:34.876Z,6.10
2023-03-20T03:00:11.049Z,6.11
2023-03-20T03:02:45.878Z,6.14
2023-03-20T03:05:16.354Z,6.20
2023-03-20T03:07:47.105Z,6.22
2023-03-20T03:10:21.010Z,6.19
2023-03-20T03:12:49.684Z,6.10
2023-03-20T03:15:19.368Z,6.02
2023-03-20T03:17:48.103Z,5.95
2023-03-20T03:20:20.602Z,5.96
2023-03-20T03:22:48.656Z,5.96
2023-03-20T03:25:15.585Z,5.88
2023-03-20T03:27:45.018Z,5.79
2023-03-20T03:30:14.126Z,5.70
2023-03-20T03:32:44.465Z,5.62
2023-03-20T03:35:16.670Z,5.55
2023-03-20T03:37:46.266Z,5.51
2023-03-20T03:40:25.352Z,5.48
2023-03-20T03:43:01.801Z,5.55
2023-03-20T03:45:50.097Z,5.57
2023-03-20T03:48:21.837Z,5.65
2023-03-20T03:50:51.423Z,5.63
2023-03-20T03:53:25.333Z,5.64
2023-03-20T03:55:58.014Z,5.69
2023-03-20T03:58:30.450Z,5.73
2023-03-20T04:00:58.860Z,5.79
2023-03-20T04:03:29.616Z,5.82
2023-03-20T04:05:58.810Z,5.84
2023-03-20T04:08:27.228Z,5.87
2023-03-20T04:10:54.061Z,5.92
2023-03-20T04:13:21.288Z,5.91
2023-03-20T04:15:48.234Z,5.94
2023-03-20T04:18:16.872Z,5.95
2023-03-20T04:20:46.240Z,5.95
2023-03-20T04:23:13.937Z,5.92
2023-03-20T04:25:41.066Z,5.85
2023-03-20T04:28:08.467Z,5.79
2023-03-20T04:30:52.644Z,5.70
2023-03-20T04:33:44.008Z,5.59
2023-03-20T04:36:23.916Z,5.51
2023-03-20T04:38:55.115Z,5.41
2023-03-20T04:41:23.245Z,5.36
2023-03-20T04:43:54.363Z,5.35
2023-03-20T04:46:23.103Z,5.27
2023-03-20T04:48:51.120Z,5.21
2023-03-20T04:51:20.853Z,5.14
2023-03-20T04:53:51.050Z,5.13
2023-03-20T04:56:18.452Z,5.15
2023-03-20T04:58:48.501Z,5.23
2023-03-20T05:01:16.956Z,5.28
2023-03-20T05:03:46.883Z,5.29
2023-03-20T05:06:13.955Z,5.33
2023-03-20T05:08:43.777Z,5.33
2023-03-20T05:11:11.079Z,5.34
2023-03-20T05:13:47.181Z,5.41
2023-03-20T05:16:32.791Z,5.52
2023-03-20T05:19:34.607Z,5.59
2023-03-20T05:22:19.793Z,5.73
2023-03-20T05:25:08.693Z,5.87
2023-03-20T05:27:35.593Z,5.97
2023-03-20T05:30:28.128Z,6.07
2023-03-20T05:33:27.496Z,6.12
2023-03-20T05:36:15.187Z,6.14
2023-03-20T05:39:08.090Z,6.14
2023-03-20T05:41:58.009Z,6.19
2023-03-20T05:44:56.216Z,6.26
2023-03-20T05:47:46.802Z,6.34
2023-03-20T05:50:29.731Z,6.42
2023-03-20T05:53:13.511Z,6.48
2023-03-20T05:56:06.902Z,6.59
2023-03-20T05:58:39.822Z,6.69
2023-03-20T06:01:25.057Z,6.82
2023-03-20T06:04:03.662Z,6.93
2023-03-20T06:07:06.436Z,7.05
2023-03-20T06:09:34.862Z,7.14
2023-03-20T06:12:06.447Z,7.23
2023-03-20T06:14:33.851Z,7.28
2023-03-20T06:17:05.476Z,7.36
2023-03-20T06:19:32.775Z,7.46
2023-03-20T06:21:59.758Z,7.53
2023-03-20T06:24:26.998Z,7.61
2023-03-20T06:26:54.370Z,7.75
2023-03-20T06:29:22.108Z,7.98
2023-03-20T06:31:52.337Z,8.34
2023-03-20T06:34:27.764Z,8.76
2023-03-20T06:36:54.653Z,9.02
2023-03-20T06:39:24.027Z,9.52
2023-03-20T06:41:51.537Z,10.29
2023-03-20T06:44:23.094Z,11.66
2023-03-20T06:47:10.278Z,12.63
2023-03-20T06:49:37.793Z,13.41
2023-03-20T06:52:06.609Z,14.16
2023-03-20T06:54:34.285Z,14.57
2023-03-20T06:57:02.629Z,14.32
2023-03-20T06:59:29.955Z,13.77
2023-03-20T07:01:58.327Z,14.63
2023-03-20T07:04:28.711Z,15.56
2023-03-20T07:06:59.630Z,16.54
2023-03-20T07:09:26.969Z,17.12
2023-03-20T07:11:54.522Z,17.75
2023-03-20T07:14:22.937Z,18.39
2023-03-20T07:17:03.458Z,18.72
2023-03-20T07:19:31.588Z,19.03
2023-03-20T07:22:03.914Z,19.25
2023-03-20T07:24:39.238Z,19.26
2023-03-20T07:27:06.682Z,19.26
2023-03-20T07:29:35.168Z,19.24
2023-03-20T07:32:06.457Z,19.41
2023-03-20T07:34:37.514Z,20.16
2023-03-20T07:37:04.722Z,20.41
2023-03-20T07:39:36.066Z,20.92
2023-03-20T07:42:38.120Z,21.17
2023-03-20T07:45:14.215Z,21.45
2023-03-20T07:47:45.687Z,21.43
2023-03-20T07:50:15.374Z,21.58
2023-03-20T07:52:47.533Z,22.11
2023-03-20T07:55:18.549Z,22.25
2023-03-20T07:57:47.769Z,21.38
2023-03-20T08:00:15.353Z,21.60
2023-03-20T08:02:42.319Z,21.92
2023-03-20T08:05:09.911Z,22.44
2023-03-20T08:07:36.935Z,22.35
2023-03-20T08:10:04.739Z,22.70
2023-03-20T08:12:31.668Z,22.92
2023-03-20T08:14:58.929Z,23.20
2023-03-20T08:17:26.056Z,23.36
2023-03-20T08:19:53.287Z,22.50
2023-03-20T08:22:21.005Z,21.59
2023-03-20T08:24:48.244Z,21.74
2023-03-20T08:27:15.174Z,21.58
2023-03-20T08:29:42.384Z,20.87
2023-03-20T08:32:09.313Z,21.46
2023-03-20T08:34:36.708Z,21.65
2023-03-20T08:37:08.007Z,21.44
2023-03-20T08:39:35.915Z,20.84
2023-03-20T08:42:05.200Z,20.68
2023-03-20T08:44:32.460Z,20.24
2023-03-20T08:46:59.377Z,20.28
2023-03-20T08:49:27.955Z,19.83
2023-03-20T08:51:54.840Z,19.50
2023-03-20T08:54:25.408Z,19.53
2023-03-20T08:56:52.400Z,19.59
2023-03-20T08:59:19.826Z,19.48
2023-03-20T09:01:50.515Z,19.39
2023-03-20T09:04:22.548Z,19.04
2023-03-20T09:06:49.987Z,19.02
2023-03-20T09:09:20.151Z,18.84
2023-03-20T09:11:49.606Z,18.63
2023-03-20T09:14:16.998Z,18.60
2023-03-20T09:16:43.854Z,19.21
2023-03-20T09:19:11.261Z,18.85
2023-03-20T09:21:38.215Z,18.85
2023-03-20T09:24:05.641Z,18.90
2023-03-20T09:26:32.578Z,18.86
2023-03-20T09:28:59.807Z,18.73
2023-03-20T09:31:26.691Z,18.67
2023-03-20T09:33:56.556Z,18.59
2023-03-20T09:36:25.826Z,18.74
2023-03-20T09:38:53.049Z,18.63
2023-03-20T09:41:27.491Z,18.80
2023-03-20T09:44:43.890Z,18.50
2023-03-20T09:47:20.618Z,18.38
2023-03-20T09:50:07.110Z,18.28
2023-03-20T09:52:54.186Z,18.16
2023-03-20T09:55:23.885Z,18.05
2023-03-20T09:57:52.618Z,18.16
2023-03-20T10:00:22.352Z,18.23
2023-03-20T10:03:00.183Z,18.29
2023-03-20T10:05:29.711Z,18.20
2023-03-20T10:08:04.113Z,18.10
2023-03-20T10:10:50.592Z,18.28
2023-03-20T10:13:29.035Z,18.64
2023-03-20T10:16:04.803Z,18.63
2023-03-20T10:18:36.751Z,18.53
2023-03-20T10:21:13.788Z,18.48
2023-03-20T10:23:50.528Z,18.66
2023-03-20T10:26:20.725Z,18.80
2023-03-20T10:29:00.103Z,18.68
2023-03-20T10:31:53.879Z,18.89
2023-03-20T10:34:20.906Z,18.55
2023-03-20T10:37:10.059Z,18.96
2023-03-20T10:40:02.589Z,19.05
2023-03-20T10:42:41.339Z,19.11
2023-03-20T10:45:09.482Z,19.25
2023-03-20T10:47:41.587Z,19.21
2023-03-20T10:50:15.066Z,19.15
2023-03-20T10:52:47.128Z,18.75
2023-03-20T10:55:32.345Z,18.84
2023-03-20T10:58:06.171Z,18.89
2023-03-20T11:00:34.275Z,18.94
2023-03-20T11:03:01.750Z,18.96
2023-03-20T11:05:31.975Z,18.96
2023-03-20T11:08:09.417Z,19.19
2023-03-20T11:10:38.170Z,19.16
2023-03-20T11:13:16.787Z,19.53
2023-03-20T11:15:46.416Z,19.80
2023-03-20T11:18:15.624Z,19.42
2023-03-20T11:20:45.937Z,19.43
2023-03-20T11:23:33.415Z,19.40
2023-03-20T11:26:05.078Z,19.56
2023-03-20T11:28:32.391Z,19.79
2023-03-20T11:31:04.793Z,19.54
2023-03-20T11:33:37.924Z,19.53
2023-03-20T11:36:10.973Z,19.68
2023-03-20T11:38:43.613Z,19.88
2023-03-20T11:41:17.452Z,19.70
2023-03-20T11:43:44.672Z,19.55
2023-03-20T11:46:13.009Z,19.43
2023-03-20T11:48:45.786Z,19.25
2023-03-20T11:51:18.994Z,19.08
2023-03-20T11:53:49.528Z,19.32
2023-03-20T11:56:26.441Z,19.33
2023-03-20T11:59:14.762Z,19.38
2023-03-20T12:01:47.368Z,19.32
2023-03-20T12:04:22.011Z,19.18
2023-03-20T12:07:01.147Z,18.86
2023-03-20T12:09:47.087Z,18.89
2023-03-20T12:12:29.447Z,18.80
2023-03-20T12:15:05.923Z,18.95
2023-03-20T12:17:35.667Z,18.91
2023-03-20T12:20:07.621Z,18.84
2023-03-20T12:22:38.657Z,18.49
2023-03-20T12:25:24.702Z,18.23
2023-03-20T12:28:03.884Z,18.03
2023-03-20T12:30:43.419Z,17.72
2023-03-20T12:33:14.619Z,17.37
2023-03-20T12:35:44.828Z,17.13
2023-03-20T12:38:28.344Z,16.98
2023-03-20T12:41:01.067Z,16.85
2023-03-20T12:43:35.622Z,16.73
2023-03-20T12:46:09.640Z,16.72
2023-03-20T12:48:52.513Z,16.62
2023-03-20T12:51:33.728Z,16.60
2023-03-20T12:54:10.632Z,16.64
2023-03-20T12:56:53.738Z,16.68
2023-03-20T12:59:20.619Z,16.65
2023-03-20T13:01:59.248Z,16.73
2023-03-20T13:04:45.073Z,16.70
2023-03-20T13:07:15.509Z,16.70
2023-03-20T13:09:44.676Z,16.67
2023-03-20T13:12:17.306Z,16.70
2023-03-20T13:14:48.974Z,16.58
2023-03-20T13:17:16.144Z,16.60
2023-03-20T13:19:46.151Z,16.52
2023-03-20T13:22:13.321Z,16.57
2023-03-20T13:24:48.739Z,16.62
2023-03-20T13:27:25.120Z,16.64
2023-03-20T13:29:55.472Z,16.61
2023-03-20T13:32:30.866Z,16.62
2023-03-20T13:35:08.147Z,16.66
2023-03-20T13:37:38.935Z,16.75
2023-03-20T13:40:24.197Z,16.75
2023-03-20T13:42:54.505Z,16.76
2023-03-20T13:45:28.918Z,16.72
2023-03-20T13:48:03.237Z,16.77
2023-03-20T13:50:41.840Z,16.74
2023-03-20T13:53:16.295Z,16.83
2023-03-20T13:56:06.458Z,16.78
2023-03-20T13:58:50.265Z,16.68
2023-03-20T14:01:22.593Z,16.62
2023-03-20T14:03:51.115Z,16.63
2023-03-20T14:06:37.983Z,16.66
2023-03-20T14:09:24.273Z,16.66
2023-03-20T14:11:53.713Z,16.60
2023-03-20T14:14:26.643Z,16.57
2023-03-20T14:17:12.147Z,16.52
2023-03-20T14:19:39.407Z,16.50
2023-03-20T14:22:06.911Z,16.49
2023-03-20T14:24:36.207Z,16.50
2023-03-20T14:27:03.466Z,16.57
2023-03-20T14:29:33.145Z,16.48
2023-03-20T14:32:22.168Z,16.57
2023-03-20T14:35:18.932Z,16.53
2023-03-20T14:38:06.136Z,16.60
2023-03-20T14:40:36.812Z,16.65
2023-03-20T14:43:21.123Z,16.57
2023-03-20T14:45:55.110Z,16.58
2023-03-20T14:48:37.933Z,16.60
2023-03-20T14:51:22.517Z,16.61
2023-03-20T14:54:18.900Z,16.66
2023-03-20T14:56:46.123Z,16.63
2023-03-20T14:59:14.529Z,16.52
2023-03-20T15:01:44.935Z,16.43
2023-03-20T15:04:25.232Z,16.37
2023-03-20T15:07:12.684Z,16.34
2023-03-20T15:09:43.172Z,16.27
2023-03-20T15:12:13.438Z,16.24
2023-03-20T15:14:45.760Z,16.18
2023-03-20T15:17:17.576Z,16.12
2023-03-20T15:19:45.355Z,16.09
2023-03-20T15:22:17.726Z,16.07
2023-03-20T15:24:52.009Z,16.04
2023-03-20T15:27:20.463Z,16.04
2023-03-20T15:29:50.602Z,16.01
2023-03-20T15:32:21.032Z,16.03
2023-03-20T15:34:51.241Z,16.12
2023-03-20T15:37:21.126Z,16.23
2023-03-20T15:39:49.869Z,16.12
2023-03-20T15:42:19.729Z,15.96
2023-03-20T15:44:48.312Z,15.82
2023-03-20T15:47:20.883Z,15.76
2023-03-20T15:49:51.529Z,15.69
2023-03-20T15:52:37.997Z,15.59
2023-03-20T15:55:07.601Z,15.56
2023-03-20T15:57:36.607Z,15.49
2023-03-20T16:00:08.935Z,15.41
2023-03-20T16:02:39.243Z,15.35
2023-03-20T16:05:11.102Z,15.29
2023-03-20T16:07:38.429Z,15.23
2023-03-20T16:10:16.682Z,15.15
2023-03-20T16:12:50.908Z,15.10
2023-03-20T16:15:20.808Z,15.07
2023-03-20T16:17:52.062Z,15.01
2023-03-20T16:20:19.719Z,14.95
2023-03-20T16:22:50.316Z,14.89
2023-03-20T16:25:19.255Z,14.83
2023-03-20T16:27:49.296Z,14.78
2023-03-20T16:30:18.102Z,14.71
2023-03-20T16:32:47.375Z,14.65
2023-03-20T16:35:19.957Z,14.61
2023-03-20T16:37:57.291Z,14.56
2023-03-20T16:40:36.398Z,14.47
2023-03-20T16:43:12.546Z,14.45
2023-03-20T16:45:44.151Z,14.42
2023-03-20T16:48:11.545Z,14.34
2023-03-20T16:50:39.935Z,14.29
2023-03-20T16:53:27.549Z,14.21
2023-03-20T16:55:58.496Z,14.11
2023-03-20T16:58:29.878Z,14.01
2023-03-20T17:01:05.058Z,13.95
2023-03-20T17:03:52.920Z,13.88
2023-03-20T17:06:21.800Z,13.80
2023-03-20T17:08:49.148Z,13.73
2023-03-20T17:11:21.917Z,13.71
2023-03-20T17:13:49.188Z,13.70
2023-03-20T17:16:20.485Z,13.64
2023-03-20T17:18:48.908Z,13.60
2023-03-20T17:21:16.490Z,13.62
2023-03-20T17:23:44.032Z,13.56
2023-03-20T17:26:12.766Z,13.50
2023-03-20T17:28:42.589Z,13.41
2023-03-20T17:31:14.432Z,13.32
2023-03-20T17:33:42.386Z,13.28
2023-03-20T17:36:24.852Z,13.24
2023-03-20T17:38:55.809Z,13.24
2023-03-20T17:41:23.666Z,13.24
2023-03-20T17:43:51.785Z,13.24
2023-03-20T17:46:24.503Z,13.26
2023-03-20T17:48:56.600Z,13.24
2023-03-20T17:51:24.096Z,13.20
2023-03-20T17:53:57.744Z,13.20
2023-03-20T17:56:31.142Z,13.20
2023-03-20T17:59:12.752Z,13.17
2023-03-20T18:01:40.416Z,13.15
2023-03-20T18:04:08.963Z,13.10
2023-03-20T18:06:40.148Z,13.05
2023-03-20T18:09:09.669Z,13.05
2023-03-20T18:11:38.148Z,13.00
2023-03-20T18:14:06.941Z,12.99
2023-03-20T18:16:34.516Z,12.95
2023-03-20T18:19:02.777Z,12.93
2023-03-20T18:21:32.893Z,12.90
2023-03-20T18:24:00.702Z,12.93
2023-03-20T18:26:28.433Z,12.92
2023-03-20T18:29:00.710Z,12.93
2023-03-20T18:31:29.030Z,12.87
2023-03-20T18:33:57.451Z,12.83
2023-03-20T18:36:25.006Z,12.84
2023-03-20T18:38:55.059Z,12.83
2023-03-20T18:41:22.707Z,12.82
2023-03-20T18:43:56.126Z,12.79
2023-03-20T18:46:24.766Z,12.77
2023-03-20T18:48:53.743Z,12.81
2023-03-20T18:51:21.380Z,12.75
2023-03-20T18:53:49.287Z,12.73
2023-03-20T18:56:21.384Z,12.70
2023-03-20T18:58:49.863Z,12.68
2023-03-20T19:01:17.944Z,12.70
2023-03-20T19:03:46.984Z,12.73
2023-03-20T19:06:15.083Z,12.69
2023-03-20T19:08:44.160Z,12.70
2023-03-20T19:11:19.624Z,12.70
2023-03-20T19:13:52.603Z,12.69
2023-03-20T19:16:21.741Z,12.66
2023-03-20T19:18:54.586Z,12.62
2023-03-20T19:21:26.710Z,12.55
2023-03-20T19:23:55.848Z,12.54
2023-03-20T19:26:26.294Z,12.53
2023-03-20T19:28:57.976Z,12.47
2023-03-20T19:31:26.632Z,12.47
2023-03-20T19:33:55.170Z,12.44
2023-03-20T19:36:23.786Z,12.43
2023-03-20T19:38:52.319Z,12.43
2023-03-20T19:41:20.557Z,12.39
2023-03-20T19:43:55.381Z,12.36
2023-03-20T19:46:42.902Z,12.37
2023-03-20T19:49:20.076Z,12.36
2023-03-20T19:51:48.803Z,12.38
2023-03-20T19:54:17.331Z,12.41
2023-03-20T19:56:45.442Z,12.40
2023-03-20T19:59:16.243Z,12.38
2023-03-20T20:01:46.441Z,12.37
2023-03-20T20:04:14.576Z,12.36
2023-03-20T20:06:47.349Z,12.36
2023-03-20T20:09:16.304Z,12.41
2023-03-20T20:11:45.510Z,12.36
2023-03-20T20:14:15.176Z,12.38
2023-03-20T20:16:45.360Z,12.36
2023-03-20T20:19:13.809Z,12.37
2023-03-20T20:24:31.947Z,12.34
2023-03-20T20:27:15.758Z,12.31
2023-03-20T20:29:51.783Z,12.22
2023-03-20T20:32:21.434Z,12.17
2023-03-20T20:38:30.709Z,12.05
2023-03-20T20:40:33.737Z,11.97
2023-03-20T20:43:10.078Z,11.93
2023-03-20T20:45:38.933Z,11.86
2023-03-20T20:48:09.043Z,11.79
2023-03-20T20:50:39.199Z,11.78
2023-03-20T20:53:08.733Z,11.70
2023-03-20T20:55:37.468Z,11.64
2023-03-20T20:58:11.183Z,11.54
2023-03-20T21:00:50.593Z,11.38
2023-03-20T21:03:20.286Z,11.27
2023-03-20T21:05:47.920Z,11.23
2023-03-20T21:08:18.632Z,11.22
2023-03-20T21:10:46.658Z,11.19
2023-03-20T21:13:14.180Z,11.16
2023-03-20T21:15:42.531Z,11.08
2023-03-20T21:18:12.059Z,10.98
2023-03-20T21:20:39.423Z,10.90
2023-03-20T21:23:06.798Z,10.78
2023-03-20T21:25:40.533Z,10.73
2023-03-20T21:28:10.906Z,10.64
2023-03-20T21:30:44.190Z,10.60
2023-03-20T21:33:26.424Z,10.58
2023-03-20T21:35:56.358Z,10.54
2023-03-20T21:38:58.419Z,10.57
2023-03-20T21:41:11.346Z,10.56
2023-03-20T21:43:39.590Z,10.55
2023-03-20T21:46:46.784Z,10.58
2023-03-20T21:55:06.043Z,10.62
2023-03-20T22:00:52.155Z,10.60
2023-03-20T22:02:55.432Z,10.56
2023-03-20T22:11:45.036Z,10.67
2023-03-20T22:20:09.072Z,10.67
2023-03-20T22:23:06.925Z,10.68
2023-03-20T22:34:16.571Z,10.26
2023-03-20T22:45:09.620Z,9.76
2023-03-20T22:47:27.454Z,9.69
2023-03-20T22:49:56.704Z,9.64
2023-03-20T22:52:38.012Z,9.66
2023-03-20T22:55:13.477Z,9.52
2023-03-20T22:57:52.989Z,9.50
2023-03-20T23:00:32.689Z,9.45
2023-03-20T23:03:15.283Z,9.47
2023-03-20T23:05:47.284Z,9.47
2023-03-20T23:08:14.579Z,9.43
2023-03-20T23:10:46.048Z,9.35
2023-03-20T23:13:13.665Z,9.25
2023-03-20T23:15:45.445Z,9.22
2023-03-20T23:18:14.935Z,9.28
2023-03-20T23:20:41.797Z,9.17
2023-03-20T23:23:09.250Z,9.13
2023-03-20T23:25:43.897Z,9.23
2023-03-20T23:28:30.462Z,9.16
2023-03-20T23:31:10.109Z,9.22
2023-03-20T23:33:38.592Z,9.21
2023-03-20T23:36:18.603Z,9.23
2023-03-20T23:38:52.536Z,9.35
2023-03-20T23:41:19.396Z,9.40
2023-03-20T23:43:46.609Z,9.47
2023-03-20T23:46:14.227Z,9.48
2023-03-20T23:48:41.456Z,9.41
2023-03-20T23:51:08.879Z,9.52
2023-03-20T23:53:36.237Z,9.57
2023-03-20T23:56:03.267Z,9.56
2023-03-20T23:58:30.857Z,9.61
